< < Back
Terminal Aerodrome Forecast


Current Version              Previous Versions:   1  2  3  4  5  6  7  8  9  

Terminal Aerodrome Forecast

424
FTUS42 KGSP 261453 AAB
TAFCLT
TAF AMD
KCLT 261453Z 2615/2712 22006KT P6SM BKN016 OVC030
     FM261700 21010G19KT P6SM SCT025 BKN040
     FM270300 21007KT P6SM BKN045 PROB30 2706/2709 4SM TSRA OVC025CB
     FM270900 35009KT 6SM -SHRA OVC017=

Latest METAR

731
SAUS70 KWBC 270300
MTRCLT
METAR KCLT 270252Z 22014G17KT 10SM BKN220 OVC250 19/12 A2974 RMK AO2
SLP065 T01940122 57003 $


USA.gov is the U.S. government's official web portal to all federal, state and local government web resources and services.